createdAt,value
2023-12-10T00:00:29.128Z,17.40
2023-12-10T00:02:58.338Z,17.40
2023-12-10T00:05:26.400Z,17.30
2023-12-10T00:07:54.274Z,17.30
2023-12-10T00:10:22.180Z,17.30
2023-12-10T00:12:50.064Z,17.30
2023-12-10T00:15:18.533Z,17.30
2023-12-10T00:17:46.425Z,17.30
2023-12-10T00:20:16.661Z,17.30
2023-12-10T00:22:46.068Z,17.30
2023-12-10T00:25:14.054Z,17.30
2023-12-10T00:27:42.123Z,17.30
2023-12-10T00:30:11.138Z,17.40
2023-12-10T00:32:39.256Z,17.40
2023-12-10T00:35:08.130Z,17.40
2023-12-10T00:37:37.418Z,17.40
2023-12-10T00:40:07.343Z,17.40
2023-12-10T00:42:35.167Z,17.40
2023-12-10T00:45:03.180Z,17.40
2023-12-10T00:47:31.149Z,17.40
2023-12-10T00:49:59.025Z,17.30
2023-12-10T00:52:27.705Z,17.30
2023-12-10T00:54:57.110Z,17.20
2023-12-10T00:57:25.092Z,17.20
2023-12-10T00:59:52.962Z,17.20
2023-12-10T01:02:21.329Z,17.10
2023-12-10T01:04:49.306Z,17.10
2023-12-10T01:07:17.805Z,17.00
2023-12-10T01:09:45.817Z,17.00
2023-12-10T01:12:15.170Z,16.90
2023-12-10T01:14:45.159Z,16.90
2023-12-10T01:17:13.484Z,16.80
2023-12-10T01:19:41.611Z,16.80
2023-12-10T01:22:09.520Z,16.70
2023-12-10T01:24:37.432Z,16.70
2023-12-10T01:27:05.973Z,16.70
2023-12-10T01:29:35.254Z,16.70
2023-12-10T01:32:05.254Z,16.70
2023-12-10T01:34:33.212Z,16.60
2023-12-10T01:37:01.194Z,16.60
2023-12-10T01:39:29.729Z,16.70
2023-12-10T01:41:57.823Z,16.70
2023-12-10T01:44:25.885Z,16.70
2023-12-10T01:46:55.623Z,16.70
2023-12-10T01:49:26.510Z,16.70
2023-12-10T01:51:54.495Z,16.70
2023-12-10T01:54:24.100Z,16.70
2023-12-10T01:56:59.948Z,16.60
2023-12-10T01:59:35.941Z,16.70
2023-12-10T02:02:06.477Z,16.70
2023-12-10T02:04:34.721Z,16.70
2023-12-10T02:07:02.746Z,16.70
2023-12-10T02:09:30.645Z,16.70
2023-12-10T02:11:58.675Z,16.70
2023-12-10T02:14:26.580Z,16.70
2023-12-10T02:16:54.460Z,16.70
2023-12-10T02:19:23.748Z,16.60
2023-12-10T02:21:53.730Z,16.60
2023-12-10T02:24:24.301Z,16.60
2023-12-10T02:26:53.599Z,16.60
2023-12-10T02:29:21.512Z,16.50
2023-12-10T02:31:49.395Z,16.50
2023-12-10T02:34:17.352Z,16.50
2023-12-10T02:36:45.368Z,16.50
2023-12-10T02:39:13.558Z,16.60
2023-12-10T02:41:42.071Z,16.70
2023-12-10T02:44:11.446Z,16.70
2023-12-10T02:46:39.486Z,16.60
2023-12-10T02:49:07.388Z,16.70
2023-12-10T02:51:35.335Z,16.70
2023-12-10T02:54:03.488Z,16.70
2023-12-10T02:56:31.659Z,16.60
2023-12-10T02:58:59.695Z,16.60
2023-12-10T03:01:30.389Z,16.60
2023-12-10T03:03:58.296Z,16.50
2023-12-10T03:06:26.209Z,16.50
2023-12-10T03:08:54.194Z,16.50
2023-12-10T03:11:22.120Z,16.60
2023-12-10T03:13:50.085Z,16.70
2023-12-10T03:16:17.972Z,16.80
2023-12-10T03:18:48.543Z,16.80
2023-12-10T03:21:16.484Z,16.70
2023-12-10T03:23:44.383Z,16.60
2023-12-10T03:26:12.285Z,16.60
2023-12-10T03:28:40.236Z,16.60
2023-12-10T03:31:08.341Z,16.50
2023-12-10T03:33:36.425Z,16.50
2023-12-10T03:36:06.694Z,16.40
2023-12-10T03:38:34.808Z,16.40
2023-12-10T03:41:03.230Z,16.40
2023-12-10T03:43:31.159Z,16.40
2023-12-10T03:45:59.055Z,16.30
2023-12-10T03:48:27.352Z,16.30
2023-12-10T03:50:55.317Z,16.30
2023-12-10T03:53:24.548Z,16.30
2023-12-10T03:55:52.406Z,16.30
2023-12-10T03:58:20.279Z,16.30
2023-12-10T04:00:48.307Z,16.30
2023-12-10T04:03:16.380Z,16.30
2023-12-10T04:05:44.362Z,16.30
2023-12-10T04:08:12.271Z,16.30
2023-12-10T04:10:41.667Z,16.30
2023-12-10T04:13:09.713Z,16.30
2023-12-10T04:15:37.620Z,16.30
2023-12-10T04:18:06.565Z,16.30
2023-12-10T04:20:34.542Z,16.30
2023-12-10T04:23:02.383Z,16.30
2023-12-10T04:25:30.226Z,16.30
2023-12-10T04:27:59.545Z,16.30
2023-12-10T04:30:28.012Z,16.30
2023-12-10T04:32:56.151Z,16.30
2023-12-10T04:35:24.059Z,16.20
2023-12-10T04:37:51.917Z,16.20
2023-12-10T04:40:19.855Z,16.20
2023-12-10T04:42:47.798Z,16.20
2023-12-10T04:45:18.949Z,16.20
2023-12-10T04:47:46.992Z,16.10
2023-12-10T04:50:15.326Z,16.10
2023-12-10T04:52:43.198Z,16.10
2023-12-10T04:55:11.046Z,16.00
2023-12-10T04:57:38.940Z,16.00
2023-12-10T05:00:09.453Z,16.00
2023-12-10T05:02:38.867Z,16.10
2023-12-10T05:05:08.835Z,16.20
2023-12-10T05:07:36.677Z,16.30
2023-12-10T05:10:05.611Z,16.40
2023-12-10T05:12:33.764Z,16.40
2023-12-10T05:15:01.847Z,16.50
2023-12-10T05:17:29.782Z,16.60
2023-12-10T05:19:59.057Z,16.70
2023-12-10T05:22:27.666Z,16.70
2023-12-10T05:24:55.808Z,16.70
2023-12-10T05:27:23.824Z,16.70
2023-12-10T05:29:53.845Z,16.80
2023-12-10T05:32:21.573Z,16.80
2023-12-10T05:34:51.409Z,16.80
2023-12-10T05:37:21.080Z,16.80
2023-12-10T05:39:49.068Z,16.90
2023-12-10T05:42:17.068Z,16.90
2023-12-10T05:44:44.954Z,16.90
2023-12-10T05:47:12.960Z,16.90
2023-12-10T05:49:40.902Z,16.90
2023-12-10T05:52:08.765Z,16.90
2023-12-10T05:54:39.726Z,16.90
2023-12-10T05:57:07.657Z,17.00
2023-12-10T05:59:35.511Z,17.00
2023-12-10T06:02:03.739Z,17.00
2023-12-10T06:04:31.814Z,17.00
2023-12-10T06:06:59.854Z,17.00
2023-12-10T06:09:27.918Z,17.00
2023-12-10T06:11:57.190Z,17.00
2023-12-10T06:14:25.064Z,17.00
2023-12-10T06:16:52.911Z,17.00
2023-12-10T06:19:20.838Z,17.00
2023-12-10T06:21:48.845Z,17.00
2023-12-10T06:24:16.913Z,17.00
2023-12-10T06:26:44.827Z,17.00
2023-12-10T06:29:14.040Z,17.00
2023-12-10T06:31:41.951Z,17.10
2023-12-10T06:34:10.326Z,17.10
2023-12-10T06:36:38.472Z,17.10
2023-12-10T06:39:07.742Z,17.10
2023-12-10T06:41:39.273Z,17.10
2023-12-10T06:44:10.569Z,17.10
2023-12-10T06:46:39.970Z,17.10
2023-12-10T06:49:08.022Z,17.10
2023-12-10T06:51:36.037Z,17.10
2023-12-10T06:54:03.952Z,17.10
2023-12-10T06:56:31.932Z,17.10
2023-12-10T06:58:59.836Z,17.10
2023-12-10T07:01:31.750Z,17.10
2023-12-10T07:04:01.516Z,17.10
2023-12-10T07:06:30.919Z,17.10
2023-12-10T07:08:58.935Z,17.10
2023-12-10T07:11:26.818Z,17.00
2023-12-10T07:13:54.973Z,17.00
2023-12-10T07:16:22.813Z,17.00
2023-12-10T07:18:50.918Z,17.00
2023-12-10T07:21:20.227Z,17.00
2023-12-10T07:23:48.090Z,17.10
2023-12-10T07:26:17.280Z,17.10
2023-12-10T07:28:45.131Z,17.10
2023-12-10T07:31:12.994Z,17.10
2023-12-10T07:33:40.967Z,17.10
2023-12-10T07:36:09.993Z,17.10
2023-12-10T07:38:39.256Z,17.00
2023-12-10T07:41:07.391Z,17.10
2023-12-10T07:43:35.394Z,17.10
2023-12-10T07:46:06.053Z,17.10
2023-12-10T07:48:35.814Z,17.10
2023-12-10T07:51:03.923Z,17.00
2023-12-10T07:53:31.817Z,17.10
2023-12-10T07:56:01.033Z,17.40
2023-12-10T07:58:28.895Z,17.30
2023-12-10T08:00:56.984Z,17.30
2023-12-10T08:03:25.001Z,17.20
2023-12-10T08:05:53.165Z,17.20
2023-12-10T08:08:21.060Z,17.20
2023-12-10T08:10:49.698Z,17.10
2023-12-10T08:13:19.685Z,17.20
2023-12-10T08:15:47.833Z,17.20
2023-12-10T08:18:16.064Z,17.10
2023-12-10T08:20:44.285Z,17.10
2023-12-10T08:23:12.253Z,17.20
2023-12-10T08:25:40.137Z,17.20
2023-12-10T08:28:08.542Z,17.20
2023-12-10T08:30:37.805Z,17.20
2023-12-10T08:33:06.001Z,17.20
2023-12-10T08:35:33.917Z,17.20
2023-12-10T08:38:01.764Z,17.20
2023-12-10T08:40:29.627Z,17.20
2023-12-10T08:42:59.684Z,17.30
2023-12-10T08:45:27.881Z,17.30
2023-12-10T08:47:57.139Z,17.30
2023-12-10T08:50:25.049Z,17.30
2023-12-10T08:52:52.924Z,17.30
2023-12-10T08:55:20.969Z,17.30
2023-12-10T08:57:48.952Z,17.30
2023-12-10T09:00:18.045Z,17.40
2023-12-10T09:02:45.961Z,17.60
2023-12-10T09:05:15.678Z,17.70
2023-12-10T09:07:43.803Z,17.80
2023-12-10T09:10:13.124Z,17.70
2023-12-10T09:12:41.727Z,17.40
2023-12-10T09:15:10.891Z,17.10
2023-12-10T09:17:38.961Z,17.10
2023-12-10T09:20:08.342Z,17.20
2023-12-10T09:22:37.685Z,17.30
2023-12-10T09:25:06.180Z,17.40
2023-12-10T09:27:34.099Z,17.40
2023-12-10T09:30:02.686Z,17.40
2023-12-10T09:32:31.105Z,17.50
2023-12-10T09:35:01.777Z,17.50
2023-12-10T09:37:30.292Z,17.50
2023-12-10T09:39:59.545Z,17.50
2023-12-10T09:42:28.557Z,17.60
2023-12-10T09:44:56.712Z,17.60
2023-12-10T09:47:27.420Z,17.60
2023-12-10T09:49:56.554Z,17.60
2023-12-10T09:52:24.982Z,17.50
2023-12-10T09:54:54.520Z,17.60
2023-12-10T09:57:23.871Z,17.50
2023-12-10T09:59:52.004Z,17.50
2023-12-10T10:02:19.865Z,17.60
2023-12-10T10:04:48.425Z,17.70
2023-12-10T10:07:16.667Z,17.60
2023-12-10T10:09:45.754Z,17.70
2023-12-10T10:12:14.859Z,17.70
2023-12-10T10:14:55.945Z,17.70
2023-12-10T10:17:32.913Z,17.80
2023-12-10T10:20:02.022Z,17.80
2023-12-10T10:22:30.305Z,17.80
2023-12-10T10:24:58.884Z,17.80
2023-12-10T10:27:28.394Z,17.80
2023-12-10T10:29:58.725Z,17.90
2023-12-10T10:32:26.884Z,17.90
2023-12-10T10:34:56.827Z,17.90
2023-12-10T10:37:25.423Z,17.80
2023-12-10T10:39:53.677Z,17.90
2023-12-10T10:42:21.890Z,17.80
2023-12-10T10:44:49.955Z,17.70
2023-12-10T10:47:20.192Z,17.70
2023-12-10T10:50:19.574Z,17.70
2023-12-10T10:52:43.333Z,17.80
2023-12-10T10:55:11.899Z,17.80
2023-12-10T10:57:40.360Z,17.80
2023-12-10T11:00:36.131Z,17.80
2023-12-10T11:03:09.012Z,17.80
2023-12-10T11:05:38.125Z,17.80
2023-12-10T11:08:07.237Z,18.00
2023-12-10T11:10:35.413Z,17.90
2023-12-10T11:13:03.734Z,17.50
2023-12-10T11:15:32.613Z,17.20
2023-12-10T11:18:02.397Z,17.00
2023-12-10T11:20:34.308Z,16.90
2023-12-10T11:23:04.493Z,16.80
2023-12-10T11:25:32.793Z,16.70
2023-12-10T11:28:03.160Z,16.60
2023-12-10T11:30:31.336Z,16.50
2023-12-10T11:32:59.489Z,16.60
2023-12-10T11:35:27.436Z,16.60
2023-12-10T11:37:56.768Z,16.50
2023-12-10T11:40:24.933Z,16.50
2023-12-10T11:42:52.862Z,16.60
2023-12-10T11:45:20.793Z,16.80
2023-12-10T11:47:49.644Z,16.90
2023-12-10T11:50:17.605Z,17.00
2023-12-10T11:52:46.350Z,17.10
2023-12-10T11:55:16.238Z,17.10
2023-12-10T11:57:45.038Z,17.10
2023-12-10T12:00:14.573Z,17.20
2023-12-10T12:02:43.910Z,17.20
2023-12-10T12:05:17.128Z,17.20
2023-12-10T12:07:45.925Z,17.30
2023-12-10T12:10:15.187Z,17.40
2023-12-10T12:12:44.749Z,17.40
2023-12-10T12:15:13.531Z,17.40
2023-12-10T12:17:42.753Z,17.40
2023-12-10T12:20:18.213Z,17.50
2023-12-10T12:22:48.853Z,17.50
2023-12-10T12:25:20.815Z,17.60
2023-12-10T12:27:49.102Z,17.60
2023-12-10T12:30:20.920Z,17.60
2023-12-10T12:32:49.058Z,17.70
2023-12-10T12:35:17.065Z,17.70
2023-12-10T12:37:45.030Z,17.80
2023-12-10T12:40:14.393Z,17.80
2023-12-10T12:42:43.666Z,17.90
2023-12-10T12:45:12.078Z,17.90
2023-12-10T12:47:40.267Z,18.00
2023-12-10T12:50:09.313Z,18.30
2023-12-10T12:52:37.405Z,18.90
2023-12-10T12:55:06.171Z,19.90
2023-12-10T12:57:34.364Z,20.40
2023-12-10T13:00:05.848Z,20.80
2023-12-10T13:02:33.902Z,20.80
2023-12-10T13:05:02.095Z,20.40
2023-12-10T13:07:30.364Z,20.20
2023-12-10T13:09:59.664Z,19.90
2023-12-10T13:12:29.186Z,20.10
2023-12-10T13:14:57.160Z,20.30
2023-12-10T13:17:27.287Z,20.50
2023-12-10T13:19:55.466Z,20.60
2023-12-10T13:22:23.382Z,20.30
2023-12-10T13:24:51.276Z,20.20
2023-12-10T13:27:22.216Z,20.10
2023-12-10T13:29:51.489Z,19.90
2023-12-10T13:32:19.437Z,19.60
2023-12-10T13:34:48.774Z,19.40
2023-12-10T13:37:16.710Z,19.30
2023-12-10T13:39:44.705Z,19.20
2023-12-10T13:42:12.575Z,19.10
2023-12-10T13:44:40.479Z,19.10
2023-12-10T13:47:09.156Z,19.10
2023-12-10T13:49:37.131Z,19.10
2023-12-10T13:52:06.722Z,19.00
2023-12-10T13:54:34.720Z,19.00
2023-12-10T13:57:02.620Z,18.90
2023-12-10T13:59:30.819Z,18.90
2023-12-10T14:01:58.696Z,18.90
2023-12-10T14:04:26.661Z,18.90
2023-12-10T14:06:54.654Z,18.80
2023-12-10T14:09:23.989Z,18.90
2023-12-10T14:11:51.905Z,18.80
2023-12-10T14:14:19.816Z,18.70
2023-12-10T14:16:47.968Z,18.70
2023-12-10T14:19:16.020Z,18.60
2023-12-10T14:21:44.043Z,18.50
2023-12-10T14:24:12.738Z,18.50
2023-12-10T14:26:42.084Z,18.50
2023-12-10T14:29:10.188Z,18.40
2023-12-10T14:31:38.096Z,18.40
2023-12-10T14:34:06.800Z,18.40
2023-12-10T14:36:35.267Z,18.40
2023-12-10T14:39:03.743Z,18.40
2023-12-10T14:41:31.612Z,18.20
2023-12-10T14:44:00.991Z,18.20
2023-12-10T14:46:29.649Z,18.10
2023-12-10T14:48:57.758Z,18.10
2023-12-10T14:51:25.720Z,18.00
2023-12-10T14:53:53.665Z,18.00
2023-12-10T14:56:21.619Z,18.00
2023-12-10T14:58:50.477Z,18.00
2023-12-10T15:01:20.263Z,17.90
2023-12-10T15:03:48.328Z,17.90
2023-12-10T15:06:16.709Z,17.90
2023-12-10T15:08:44.581Z,18.00
2023-12-10T15:11:12.459Z,18.00
2023-12-10T15:13:40.376Z,18.00
2023-12-10T15:16:09.604Z,18.00
2023-12-10T15:18:39.235Z,18.10
2023-12-10T15:21:07.528Z,18.20
2023-12-10T15:23:35.370Z,18.30
2023-12-10T15:26:03.625Z,18.30
2023-12-10T15:28:32.824Z,18.30
2023-12-10T15:31:01.129Z,18.20
2023-12-10T15:33:30.189Z,18.20
2023-12-10T15:35:59.569Z,18.10
2023-12-10T15:38:27.444Z,18.10
2023-12-10T15:40:55.570Z,18.00
2023-12-10T15:43:23.433Z,18.00
2023-12-10T15:45:51.327Z,17.90
2023-12-10T15:48:19.294Z,17.90
2023-12-10T15:50:47.748Z,17.90
2023-12-10T15:53:16.974Z,17.80
2023-12-10T15:55:44.972Z,17.80
2023-12-10T15:58:13.340Z,17.90
2023-12-10T16:00:41.329Z,17.90
2023-12-10T16:03:09.967Z,17.90
2023-12-10T16:05:38.013Z,17.90
2023-12-10T16:08:06.182Z,17.90
2023-12-10T16:10:35.428Z,17.90
2023-12-10T16:13:03.386Z,17.80
2023-12-10T16:15:31.311Z,17.80
2023-12-10T16:17:59.224Z,17.90
2023-12-10T16:20:27.378Z,17.90
2023-12-10T16:22:55.227Z,17.90
2023-12-10T16:25:23.112Z,17.90
2023-12-10T16:27:52.339Z,17.90
2023-12-10T16:30:21.358Z,17.80
2023-12-10T16:32:50.585Z,17.80
2023-12-10T16:35:18.665Z,17.80
2023-12-10T16:37:46.561Z,17.90
2023-12-10T16:40:15.831Z,17.90
2023-12-10T16:42:43.996Z,17.90
2023-12-10T16:45:13.813Z,17.80
2023-12-10T16:47:42.005Z,17.80
2023-12-10T16:50:10.953Z,17.80
2023-12-10T16:52:40.594Z,17.80
2023-12-10T16:55:12.688Z,17.80
2023-12-10T16:57:41.226Z,17.80
2023-12-10T17:00:11.098Z,17.90
2023-12-10T17:02:40.361Z,17.80
2023-12-10T17:05:10.436Z,17.80
2023-12-10T17:07:38.548Z,17.80
2023-12-10T17:10:07.278Z,17.80
2023-12-10T17:12:35.307Z,17.70
2023-12-10T17:15:03.238Z,17.80
2023-12-10T17:17:31.479Z,17.80
2023-12-10T17:20:01.232Z,17.80
2023-12-10T17:22:29.352Z,17.80
2023-12-10T17:24:57.241Z,17.70
2023-12-10T17:27:25.513Z,17.70
2023-12-10T17:29:53.412Z,17.70
2023-12-10T17:32:21.277Z,17.80
2023-12-10T17:34:49.497Z,17.80
2023-12-10T17:37:18.860Z,17.80
2023-12-10T17:39:46.784Z,17.80
2023-12-10T17:42:15.046Z,17.80
2023-12-10T17:44:50.525Z,17.70
2023-12-10T17:47:24.733Z,17.70
2023-12-10T17:49:53.006Z,17.80
2023-12-10T17:52:22.392Z,17.80
2023-12-10T17:54:50.633Z,17.80
2023-12-10T17:57:18.533Z,17.80
2023-12-10T17:59:46.611Z,17.80
2023-12-10T18:02:14.468Z,17.80
2023-12-10T18:04:42.403Z,17.80
2023-12-10T18:07:10.256Z,17.80
2023-12-10T18:09:39.564Z,17.80
2023-12-10T18:12:09.475Z,17.80
2023-12-10T18:14:37.228Z,17.90
2023-12-10T18:17:05.404Z,17.90
2023-12-10T18:19:33.399Z,17.80
2023-12-10T18:22:01.499Z,17.80
2023-12-10T18:24:29.455Z,17.80
2023-12-10T18:26:58.689Z,17.80
2023-12-10T18:29:27.742Z,17.80
2023-12-10T18:31:55.736Z,17.80
2023-12-10T18:34:25.706Z,17.80
2023-12-10T18:36:53.920Z,17.80
2023-12-10T18:39:21.886Z,17.70
2023-12-10T18:41:50.571Z,17.80
2023-12-10T18:44:19.807Z,17.80
2023-12-10T18:46:47.913Z,17.70
2023-12-10T18:49:17.058Z,17.80
2023-12-10T18:51:45.340Z,17.70
2023-12-10T18:54:13.332Z,17.80
2023-12-10T18:56:41.240Z,17.80
2023-12-10T18:59:09.094Z,17.70
2023-12-10T19:01:38.810Z,17.70
2023-12-10T19:04:06.861Z,17.70
2023-12-10T19:06:34.809Z,17.70
2023-12-10T19:09:03.669Z,17.70
2023-12-10T19:11:31.632Z,17.80
2023-12-10T19:14:00.227Z,17.70
2023-12-10T19:16:28.307Z,17.70
2023-12-10T19:18:59.708Z,17.70
2023-12-10T19:21:28.294Z,17.70
2023-12-10T19:23:56.367Z,17.70
2023-12-10T19:26:24.347Z,17.70
2023-12-10T19:28:53.211Z,17.70
2023-12-10T19:31:25.077Z,17.70
2023-12-10T19:33:53.695Z,17.70
2023-12-10T19:36:23.079Z,17.70
2023-12-10T19:38:50.993Z,17.70
2023-12-10T19:41:18.890Z,17.70
2023-12-10T19:43:46.775Z,17.70
2023-12-10T19:46:14.736Z,17.70
2023-12-10T19:48:42.674Z,17.70
2023-12-10T19:51:10.620Z,17.70
2023-12-10T19:53:40.621Z,17.70
2023-12-10T19:56:11.613Z,17.70
2023-12-10T19:58:39.581Z,17.70
2023-12-10T20:01:07.756Z,17.60
2023-12-10T20:03:36.000Z,17.60
2023-12-10T20:06:04.270Z,17.60
2023-12-10T20:08:32.704Z,17.60
2023-12-10T20:11:02.184Z,17.60
2023-12-10T20:13:30.739Z,17.60
2023-12-10T20:15:59.019Z,17.60
2023-12-10T20:18:26.977Z,17.60
2023-12-10T20:20:55.690Z,17.60
2023-12-10T20:23:24.597Z,17.60
2023-12-10T20:25:53.071Z,17.60
2023-12-10T20:28:23.493Z,17.60
2023-12-10T20:30:51.568Z,17.60
2023-12-10T20:33:19.574Z,17.50
2023-12-10T20:35:48.837Z,17.50
2023-12-10T20:38:16.718Z,17.60
2023-12-10T20:40:48.585Z,17.60
2023-12-10T20:43:17.789Z,17.50
2023-12-10T20:45:47.061Z,17.50
2023-12-10T20:48:15.360Z,17.50
2023-12-10T20:50:43.341Z,17.50
2023-12-10T20:53:12.585Z,17.50
2023-12-10T20:55:40.476Z,17.50
2023-12-10T20:58:09.926Z,17.50
2023-12-10T21:00:39.180Z,17.60
2023-12-10T21:03:09.116Z,17.60
2023-12-10T21:05:38.418Z,17.60
2023-12-10T21:08:06.587Z,17.60
2023-12-10T21:10:34.444Z,17.60
2023-12-10T21:13:02.380Z,17.60
2023-12-10T21:15:30.292Z,17.60
2023-12-10T21:17:58.479Z,17.60
2023-12-10T21:20:28.104Z,17.60
2023-12-10T21:22:56.157Z,17.60
2023-12-10T21:25:24.094Z,17.60
2023-12-10T21:27:52.049Z,17.60
2023-12-10T21:30:19.939Z,17.60
2023-12-10T21:32:47.821Z,17.60
2023-12-10T21:35:16.226Z,17.60
2023-12-10T21:37:45.706Z,17.60
2023-12-10T21:40:14.689Z,17.50
2023-12-10T21:42:42.939Z,17.50
2023-12-10T21:45:11.670Z,17.50
2023-12-10T21:47:39.773Z,17.50
2023-12-10T21:50:08.541Z,17.40
2023-12-10T21:52:36.456Z,17.40
2023-12-10T21:55:06.427Z,17.40
2023-12-10T21:57:34.523Z,17.40
2023-12-10T22:00:02.647Z,17.30
2023-12-10T22:02:30.500Z,17.30
2023-12-10T22:04:58.433Z,17.20
2023-12-10T22:07:26.337Z,17.20
2023-12-10T22:09:54.235Z,17.10
2023-12-10T22:12:23.799Z,17.10
2023-12-10T22:14:54.104Z,17.10
2023-12-10T22:17:22.698Z,17.10
2023-12-10T22:19:50.614Z,17.00
2023-12-10T22:22:18.717Z,17.00
2023-12-10T22:24:46.597Z,17.00
2023-12-10T22:27:14.509Z,16.90
2023-12-10T22:29:43.948Z,16.90
2023-12-10T22:32:11.810Z,16.90
2023-12-10T22:34:39.739Z,16.90
2023-12-10T22:37:07.681Z,16.90
2023-12-10T22:39:35.626Z,16.80
2023-12-10T22:42:03.523Z,16.80
2023-12-10T22:44:31.395Z,16.80
2023-12-10T22:47:00.732Z,16.80
2023-12-10T22:49:28.761Z,17.00
2023-12-10T22:51:56.738Z,17.00
2023-12-10T22:54:24.635Z,17.00
2023-12-10T22:56:52.512Z,17.00
2023-12-10T22:59:20.409Z,17.10
2023-12-10T23:01:49.092Z,17.20
2023-12-10T23:04:18.571Z,17.10
2023-12-10T23:06:46.595Z,17.10
2023-12-10T23:09:14.538Z,17.10
2023-12-10T23:11:45.437Z,17.10
2023-12-10T23:14:13.346Z,17.20
2023-12-10T23:16:41.610Z,17.20
2023-12-10T23:19:09.816Z,17.30
2023-12-10T23:21:39.310Z,17.30
2023-12-10T23:24:07.679Z,17.20
2023-12-10T23:26:36.295Z,17.20
2023-12-10T23:29:05.698Z,17.20
2023-12-10T23:31:33.647Z,17.20
2023-12-10T23:34:01.934Z,17.30
2023-12-10T23:36:29.847Z,17.50
2023-12-10T23:38:59.029Z,17.50
2023-12-10T23:41:26.908Z,17.50
2023-12-10T23:43:55.603Z,17.40
2023-12-10T23:46:23.480Z,17.40
2023-12-10T23:48:51.441Z,17.30
2023-12-10T23:51:20.264Z,17.30
2023-12-10T23:53:48.142Z,17.30
2023-12-10T23:56:17.600Z,17.20
2023-12-10T23:58:45.589Z,17.20
